sensor_id;sensor_type;location;lat;lon;timestamp;temperature;humidity
67598;DHT22;62026;39.230;9.122;2023-08-07T00:00:57;23.20;55.20
67598;DHT22;62026;39.230;9.122;2023-08-07T00:03:23;23.20;55.20
67598;DHT22;62026;39.230;9.122;2023-08-07T00:05:49;23.30;55.20
67598;DHT22;62026;39.230;9.122;2023-08-07T00:08:17;23.30;55.40
67598;DHT22;62026;39.230;9.122;2023-08-07T00:10:43;23.20;55.40
67598;DHT22;62026;39.230;9.122;2023-08-07T00:13:09;23.20;55.50
67598;DHT22;62026;39.230;9.122;2023-08-07T00:15:37;23.20;55.40
67598;DHT22;62026;39.230;9.122;2023-08-07T00:18:04;23.20;55.40
67598;DHT22;62026;39.230;9.122;2023-08-07T00:20:30;23.10;55.40
67598;DHT22;62026;39.230;9.122;2023-08-07T00:22:56;23.20;55.40
67598;DHT22;62026;39.230;9.122;2023-08-07T00:25:22;23.10;55.50
67598;DHT22;62026;39.230;9.122;2023-08-07T00:27:48;23.10;55.60
67598;DHT22;62026;39.230;9.122;2023-08-07T00:30:14;23.10;55.60
67598;DHT22;62026;39.230;9.122;2023-08-07T00:32:40;23.10;55.70
67598;DHT22;62026;39.230;9.122;2023-08-07T00:35:06;23.10;55.50
67598;DHT22;62026;39.230;9.122;2023-08-07T00:37:34;23.00;55.40
67598;DHT22;62026;39.230;9.122;2023-08-07T00:40:01;23.00;55.20
67598;DHT22;62026;39.230;9.122;2023-08-07T00:42:28;23.10;55.10
67598;DHT22;62026;39.230;9.122;2023-08-07T00:44:54;23.10;54.70
67598;DHT22;62026;39.230;9.122;2023-08-07T00:47:20;23.00;54.50
67598;DHT22;62026;39.230;9.122;2023-08-07T00:49:47;23.00;54.50
67598;DHT22;62026;39.230;9.122;2023-08-07T00:52:14;23.00;54.20
67598;DHT22;62026;39.230;9.122;2023-08-07T00:54:40;23.00;54.00
67598;DHT22;62026;39.230;9.122;2023-08-07T00:57:13;23.00;54.00
67598;DHT22;62026;39.230;9.122;2023-08-07T00:59:42;23.00;54.00
67598;DHT22;62026;39.230;9.122;2023-08-07T01:02:10;23.00;53.80
67598;DHT22;62026;39.230;9.122;2023-08-07T01:04:38;23.00;53.80
67598;DHT22;62026;39.230;9.122;2023-08-07T01:07:04;23.00;53.70
67598;DHT22;62026;39.230;9.122;2023-08-07T01:09:30;23.00;53.70
67598;DHT22;62026;39.230;9.122;2023-08-07T01:12:44;23.00;53.70
67598;DHT22;62026;39.230;9.122;2023-08-07T01:15:12;23.00;53.80
67598;DHT22;62026;39.230;9.122;2023-08-07T01:17:42;23.00;53.80
67598;DHT22;62026;39.230;9.122;2023-08-07T01:20:11;23.00;53.70
67598;DHT22;62026;39.230;9.122;2023-08-07T01:22:37;23.00;53.70
67598;DHT22;62026;39.230;9.122;2023-08-07T01:25:03;23.00;53.70
67598;DHT22;62026;39.230;9.122;2023-08-07T01:28:02;23.00;53.70
67598;DHT22;62026;39.230;9.122;2023-08-07T01:30:38;23.00;53.70
67598;DHT22;62026;39.230;9.122;2023-08-07T01:36:00;23.00;53.90
67598;DHT22;62026;39.230;9.122;2023-08-07T01:38:29;23.00;54.00
67598;DHT22;62026;39.230;9.122;2023-08-07T01:40:56;23.00;54.00
67598;DHT22;62026;39.230;9.122;2023-08-07T01:43:24;23.00;54.20
67598;DHT22;62026;39.230;9.122;2023-08-07T01:45:50;23.00;54.20
67598;DHT22;62026;39.230;9.122;2023-08-07T01:48:16;22.90;54.30
67598;DHT22;62026;39.230;9.122;2023-08-07T01:50:42;23.00;54.40
67598;DHT22;62026;39.230;9.122;2023-08-07T01:53:08;23.00;54.30
67598;DHT22;62026;39.230;9.122;2023-08-07T01:55:34;23.00;54.20
67598;DHT22;62026;39.230;9.122;2023-08-07T01:58:00;22.90;54.40
67598;DHT22;62026;39.230;9.122;2023-08-07T02:00:25;22.90;54.50
67598;DHT22;62026;39.230;9.122;2023-08-07T02:02:51;23.00;54.40
67598;DHT22;62026;39.230;9.122;2023-08-07T02:05:17;23.00;54.50
67598;DHT22;62026;39.230;9.122;2023-08-07T02:07:44;23.00;54.70
67598;DHT22;62026;39.230;9.122;2023-08-07T02:10:10;23.00;54.70
67598;DHT22;62026;39.230;9.122;2023-08-07T02:12:36;22.90;54.80
67598;DHT22;62026;39.230;9.122;2023-08-07T02:15:02;23.00;54.80
67598;DHT22;62026;39.230;9.122;2023-08-07T02:17:29;22.90;54.90
67598;DHT22;62026;39.230;9.122;2023-08-07T02:19:58;23.00;54.80
67598;DHT22;62026;39.230;9.122;2023-08-07T02:22:25;23.00;54.80
67598;DHT22;62026;39.230;9.122;2023-08-07T02:24:51;23.00;54.90
67598;DHT22;62026;39.230;9.122;2023-08-07T02:27:17;22.90;54.90
67598;DHT22;62026;39.230;9.122;2023-08-07T02:29:44;22.90;54.90
67598;DHT22;62026;39.230;9.122;2023-08-07T02:32:10;23.00;55.00
67598;DHT22;62026;39.230;9.122;2023-08-07T02:34:36;23.00;54.90
67598;DHT22;62026;39.230;9.122;2023-08-07T02:37:02;23.00;55.00
67598;DHT22;62026;39.230;9.122;2023-08-07T02:39:28;23.00;55.00
67598;DHT22;62026;39.230;9.122;2023-08-07T02:41:54;22.90;55.10
67598;DHT22;62026;39.230;9.122;2023-08-07T02:44:19;23.00;55.00
67598;DHT22;62026;39.230;9.122;2023-08-07T02:46:46;22.90;55.10
67598;DHT22;62026;39.230;9.122;2023-08-07T02:49:12;23.00;55.10
67598;DHT22;62026;39.230;9.122;2023-08-07T02:51:38;23.00;55.10
67598;DHT22;62026;39.230;9.122;2023-08-07T02:54:04;23.00;55.00
67598;DHT22;62026;39.230;9.122;2023-08-07T02:56:30;23.00;54.90
67598;DHT22;62026;39.230;9.122;2023-08-07T02:58:56;23.00;55.00
67598;DHT22;62026;39.230;9.122;2023-08-07T03:01:24;23.00;55.00
67598;DHT22;62026;39.230;9.122;2023-08-07T03:03:50;23.00;55.10
67598;DHT22;62026;39.230;9.122;2023-08-07T03:06:16;23.00;54.90
67598;DHT22;62026;39.230;9.122;2023-08-07T03:08:42;23.00;54.80
67598;DHT22;62026;39.230;9.122;2023-08-07T03:11:08;23.00;54.80
67598;DHT22;62026;39.230;9.122;2023-08-07T03:13:34;22.90;54.90
67598;DHT22;62026;39.230;9.122;2023-08-07T03:16:05;22.90;55.00
67598;DHT22;62026;39.230;9.122;2023-08-07T03:18:33;22.90;55.00
67598;DHT22;62026;39.230;9.122;2023-08-07T03:20:59;22.90;55.00
67598;DHT22;62026;39.230;9.122;2023-08-07T03:23:26;22.90;55.00
67598;DHT22;62026;39.230;9.122;2023-08-07T03:26:09;22.90;54.80
67598;DHT22;62026;39.230;9.122;2023-08-07T03:28:39;22.90;54.90
67598;DHT22;62026;39.230;9.122;2023-08-07T03:31:05;22.90;54.80
67598;DHT22;62026;39.230;9.122;2023-08-07T03:33:34;22.90;54.80
67598;DHT22;62026;39.230;9.122;2023-08-07T03:36:00;22.90;54.80
67598;DHT22;62026;39.230;9.122;2023-08-07T03:38:26;22.90;54.80
67598;DHT22;62026;39.230;9.122;2023-08-07T03:40:54;22.90;54.80
67598;DHT22;62026;39.230;9.122;2023-08-07T03:43:21;22.80;54.70
67598;DHT22;62026;39.230;9.122;2023-08-07T03:45:47;22.80;54.80
67598;DHT22;62026;39.230;9.122;2023-08-07T03:48:13;22.80;55.00
67598;DHT22;62026;39.230;9.122;2023-08-07T03:50:40;22.80;55.30
67598;DHT22;62026;39.230;9.122;2023-08-07T03:53:06;22.80;55.40
67598;DHT22;62026;39.230;9.122;2023-08-07T03:55:36;22.80;55.60
67598;DHT22;62026;39.230;9.122;2023-08-07T03:58:03;22.80;55.70
67598;DHT22;62026;39.230;9.122;2023-08-07T04:00:29;22.70;55.80
67598;DHT22;62026;39.230;9.122;2023-08-07T04:02:55;22.70;55.80
67598;DHT22;62026;39.230;9.122;2023-08-07T04:05:21;22.70;55.90
67598;DHT22;62026;39.230;9.122;2023-08-07T04:07:47;22.70;55.90
67598;DHT22;62026;39.230;9.122;2023-08-07T04:10:13;22.70;56.00
67598;DHT22;62026;39.230;9.122;2023-08-07T04:12:39;22.70;56.10
67598;DHT22;62026;39.230;9.122;2023-08-07T04:15:06;22.70;56.00
67598;DHT22;62026;39.230;9.122;2023-08-07T04:17:32;22.70;56.10
67598;DHT22;62026;39.230;9.122;2023-08-07T04:19:58;22.70;55.70
67598;DHT22;62026;39.230;9.122;2023-08-07T04:22:24;22.70;55.50
67598;DHT22;62026;39.230;9.122;2023-08-07T04:24:50;22.70;55.60
67598;DHT22;62026;39.230;9.122;2023-08-07T04:27:16;22.70;55.60
67598;DHT22;62026;39.230;9.122;2023-08-07T04:29:42;22.60;55.40
67598;DHT22;62026;39.230;9.122;2023-08-07T04:32:08;22.60;55.40
67598;DHT22;62026;39.230;9.122;2023-08-07T04:34:35;22.60;55.40
67598;DHT22;62026;39.230;9.122;2023-08-07T04:37:00;22.60;55.10
67598;DHT22;62026;39.230;9.122;2023-08-07T04:39:27;22.60;55.00
67598;DHT22;62026;39.230;9.122;2023-08-07T04:41:53;22.60;55.00
67598;DHT22;62026;39.230;9.122;2023-08-07T04:44:18;22.60;55.00
67598;DHT22;62026;39.230;9.122;2023-08-07T04:46:44;22.60;55.00
67598;DHT22;62026;39.230;9.122;2023-08-07T04:49:10;22.60;54.70
67598;DHT22;62026;39.230;9.122;2023-08-07T04:51:36;22.60;54.60
67598;DHT22;62026;39.230;9.122;2023-08-07T04:54:02;22.60;54.60
67598;DHT22;62026;39.230;9.122;2023-08-07T04:56:28;22.60;54.60
67598;DHT22;62026;39.230;9.122;2023-08-07T04:58:54;22.60;54.60
67598;DHT22;62026;39.230;9.122;2023-08-07T05:01:20;22.60;54.40
67598;DHT22;62026;39.230;9.122;2023-08-07T05:03:46;22.60;54.30
67598;DHT22;62026;39.230;9.122;2023-08-07T05:06:12;22.60;54.30
67598;DHT22;62026;39.230;9.122;2023-08-07T05:08:38;22.70;54.20
67598;DHT22;62026;39.230;9.122;2023-08-07T05:11:04;22.70;54.20
67598;DHT22;62026;39.230;9.122;2023-08-07T05:13:30;22.70;54.20
67598;DHT22;62026;39.230;9.122;2023-08-07T05:15:56;22.70;54.00
67598;DHT22;62026;39.230;9.122;2023-08-07T05:18:22;22.80;53.80
67598;DHT22;62026;39.230;9.122;2023-08-07T05:20:48;22.80;53.60
67598;DHT22;62026;39.230;9.122;2023-08-07T05:23:13;22.90;53.40
67598;DHT22;62026;39.230;9.122;2023-08-07T05:25:39;23.00;53.10
67598;DHT22;62026;39.230;9.122;2023-08-07T05:28:05;23.10;53.00
67598;DHT22;62026;39.230;9.122;2023-08-07T05:30:31;23.10;52.90
67598;DHT22;62026;39.230;9.122;2023-08-07T05:32:58;23.20;52.70
67598;DHT22;62026;39.230;9.122;2023-08-07T05:35:24;23.40;52.40
67598;DHT22;62026;39.230;9.122;2023-08-07T05:37:50;23.40;52.00
67598;DHT22;62026;39.230;9.122;2023-08-07T05:40:16;23.50;51.80
67598;DHT22;62026;39.230;9.122;2023-08-07T05:42:42;23.60;51.70
67598;DHT22;62026;39.230;9.122;2023-08-07T05:45:09;23.60;51.60
67598;DHT22;62026;39.230;9.122;2023-08-07T05:47:36;23.70;51.60
67598;DHT22;62026;39.230;9.122;2023-08-07T05:50:02;23.80;51.40
67598;DHT22;62026;39.230;9.122;2023-08-07T05:52:28;23.80;51.20
67598;DHT22;62026;39.230;9.122;2023-08-07T05:54:54;23.90;51.20
67598;DHT22;62026;39.230;9.122;2023-08-07T05:57:20;23.90;50.90
67598;DHT22;62026;39.230;9.122;2023-08-07T05:59:46;24.00;50.70
67598;DHT22;62026;39.230;9.122;2023-08-07T06:02:12;24.00;50.60
67598;DHT22;62026;39.230;9.122;2023-08-07T06:04:38;24.10;50.40
67598;DHT22;62026;39.230;9.122;2023-08-07T06:07:05;24.20;50.00
67598;DHT22;62026;39.230;9.122;2023-08-07T06:09:31;24.30;50.00
67598;DHT22;62026;39.230;9.122;2023-08-07T06:11:57;24.30;49.70
67598;DHT22;62026;39.230;9.122;2023-08-07T06:14:23;24.40;49.50
67598;DHT22;62026;39.230;9.122;2023-08-07T06:16:51;24.50;49.40
67598;DHT22;62026;39.230;9.122;2023-08-07T06:19:17;24.50;49.10
67598;DHT22;62026;39.230;9.122;2023-08-07T06:21:45;24.60;49.20
67598;DHT22;62026;39.230;9.122;2023-08-07T06:24:11;24.60;49.00
67598;DHT22;62026;39.230;9.122;2023-08-07T06:26:38;24.70;48.90
67598;DHT22;62026;39.230;9.122;2023-08-07T06:29:04;24.80;49.00
67598;DHT22;62026;39.230;9.122;2023-08-07T06:31:30;24.80;49.10
67598;DHT22;62026;39.230;9.122;2023-08-07T06:33:55;24.80;49.00
67598;DHT22;62026;39.230;9.122;2023-08-07T06:36:21;24.90;49.10
67598;DHT22;62026;39.230;9.122;2023-08-07T06:38:47;24.90;49.20
67598;DHT22;62026;39.230;9.122;2023-08-07T06:41:13;25.00;49.10
67598;DHT22;62026;39.230;9.122;2023-08-07T06:43:39;25.10;49.10
67598;DHT22;62026;39.230;9.122;2023-08-07T06:46:05;25.00;48.90
67598;DHT22;62026;39.230;9.122;2023-08-07T06:48:31;24.90;49.20
67598;DHT22;62026;39.230;9.122;2023-08-07T06:50:58;24.90;49.20
67598;DHT22;62026;39.230;9.122;2023-08-07T06:53:24;24.90;49.10
67598;DHT22;62026;39.230;9.122;2023-08-07T06:55:50;25.10;49.60
67598;DHT22;62026;39.230;9.122;2023-08-07T06:58:16;25.20;49.10
67598;DHT22;62026;39.230;9.122;2023-08-07T07:00:42;25.30;48.60
67598;DHT22;62026;39.230;9.122;2023-08-07T07:03:08;25.30;48.10
67598;DHT22;62026;39.230;9.122;2023-08-07T07:05:35;25.30;47.30
67598;DHT22;62026;39.230;9.122;2023-08-07T07:08:01;25.20;47.40
67598;DHT22;62026;39.230;9.122;2023-08-07T07:10:28;25.20;47.20
67598;DHT22;62026;39.230;9.122;2023-08-07T07:12:54;25.20;47.40
67598;DHT22;62026;39.230;9.122;2023-08-07T07:15:20;25.20;47.40
67598;DHT22;62026;39.230;9.122;2023-08-07T07:17:46;25.20;47.50
67598;DHT22;62026;39.230;9.122;2023-08-07T07:20:12;25.20;47.30
67598;DHT22;62026;39.230;9.122;2023-08-07T07:22:39;25.20;47.30
67598;DHT22;62026;39.230;9.122;2023-08-07T07:25:05;25.30;47.50
67598;DHT22;62026;39.230;9.122;2023-08-07T07:27:32;25.40;47.20
67598;DHT22;62026;39.230;9.122;2023-08-07T07:29:57;25.50;47.20
67598;DHT22;62026;39.230;9.122;2023-08-07T07:32:24;25.70;47.00
67598;DHT22;62026;39.230;9.122;2023-08-07T07:34:51;25.80;46.70
67598;DHT22;62026;39.230;9.122;2023-08-07T07:37:17;25.90;46.50
67598;DHT22;62026;39.230;9.122;2023-08-07T07:39:43;26.10;46.40
67598;DHT22;62026;39.230;9.122;2023-08-07T07:42:09;26.20;45.80
67598;DHT22;62026;39.230;9.122;2023-08-07T07:44:35;26.20;45.50
67598;DHT22;62026;39.230;9.122;2023-08-07T07:47:02;26.30;45.40
67598;DHT22;62026;39.230;9.122;2023-08-07T07:49:28;26.30;45.20
67598;DHT22;62026;39.230;9.122;2023-08-07T07:51:54;26.30;44.70
67598;DHT22;62026;39.230;9.122;2023-08-07T07:54:20;26.30;44.50
67598;DHT22;62026;39.230;9.122;2023-08-07T07:56:46;26.40;44.40
67598;DHT22;62026;39.230;9.122;2023-08-07T07:59:12;26.40;44.00
67598;DHT22;62026;39.230;9.122;2023-08-07T08:01:39;26.40;44.20
67598;DHT22;62026;39.230;9.122;2023-08-07T08:04:05;26.60;44.10
67598;DHT22;62026;39.230;9.122;2023-08-07T08:06:32;26.70;43.80
67598;DHT22;62026;39.230;9.122;2023-08-07T08:08:58;26.70;43.70
67598;DHT22;62026;39.230;9.122;2023-08-07T08:11:25;26.70;43.60
67598;DHT22;62026;39.230;9.122;2023-08-07T08:13:51;26.70;43.40
67598;DHT22;62026;39.230;9.122;2023-08-07T08:16:17;26.80;43.30
67598;DHT22;62026;39.230;9.122;2023-08-07T08:18:42;26.90;43.10
67598;DHT22;62026;39.230;9.122;2023-08-07T08:21:08;26.90;43.00
67598;DHT22;62026;39.230;9.122;2023-08-07T08:23:34;26.90;43.00
67598;DHT22;62026;39.230;9.122;2023-08-07T08:26:01;26.80;43.00
67598;DHT22;62026;39.230;9.122;2023-08-07T08:28:27;26.90;43.00
67598;DHT22;62026;39.230;9.122;2023-08-07T08:30:53;26.90;42.90
67598;DHT22;62026;39.230;9.122;2023-08-07T08:33:19;26.90;42.90
67598;DHT22;62026;39.230;9.122;2023-08-07T08:35:45;27.00;42.90
67598;DHT22;62026;39.230;9.122;2023-08-07T08:38:11;27.20;42.60
67598;DHT22;62026;39.230;9.122;2023-08-07T08:40:38;27.30;42.30
67598;DHT22;62026;39.230;9.122;2023-08-07T08:43:06;27.40;42.00
67598;DHT22;62026;39.230;9.122;2023-08-07T08:45:32;27.40;41.40
67598;DHT22;62026;39.230;9.122;2023-08-07T08:48:02;27.40;41.50
67598;DHT22;62026;39.230;9.122;2023-08-07T08:50:29;27.40;41.60
67598;DHT22;62026;39.230;9.122;2023-08-07T08:52:57;27.60;41.50
67598;DHT22;62026;39.230;9.122;2023-08-07T08:55:23;27.60;40.50
67598;DHT22;62026;39.230;9.122;2023-08-07T08:57:51;27.60;40.50
67598;DHT22;62026;39.230;9.122;2023-08-07T09:00:19;27.80;39.90
67598;DHT22;62026;39.230;9.122;2023-08-07T09:02:50;27.80;39.40
67598;DHT22;62026;39.230;9.122;2023-08-07T09:05:19;27.90;39.20
67598;DHT22;62026;39.230;9.122;2023-08-07T09:07:47;28.00;38.70
67598;DHT22;62026;39.230;9.122;2023-08-07T09:10:15;28.00;39.00
67598;DHT22;62026;39.230;9.122;2023-08-07T09:12:57;28.10;38.60
67598;DHT22;62026;39.230;9.122;2023-08-07T09:15:25;28.20;38.20
67598;DHT22;62026;39.230;9.122;2023-08-07T09:17:54;28.20;38.20
67598;DHT22;62026;39.230;9.122;2023-08-07T09:20:21;28.30;37.80
67598;DHT22;62026;39.230;9.122;2023-08-07T09:22:48;28.40;37.30
67598;DHT22;62026;39.230;9.122;2023-08-07T09:25:14;28.40;37.10
67598;DHT22;62026;39.230;9.122;2023-08-07T09:27:51;28.50;37.30
67598;DHT22;62026;39.230;9.122;2023-08-07T09:30:17;28.50;37.60
67598;DHT22;62026;39.230;9.122;2023-08-07T09:32:47;28.50;37.60
67598;DHT22;62026;39.230;9.122;2023-08-07T09:35:13;28.60;37.60
67598;DHT22;62026;39.230;9.122;2023-08-07T09:37:39;28.70;37.40
67598;DHT22;62026;39.230;9.122;2023-08-07T09:40:09;28.70;37.20
67598;DHT22;62026;39.230;9.122;2023-08-07T09:42:37;28.80;37.50
67598;DHT22;62026;39.230;9.122;2023-08-07T09:45:25;28.80;37.50
67598;DHT22;62026;39.230;9.122;2023-08-07T09:48:03;28.90;37.30
67598;DHT22;62026;39.230;9.122;2023-08-07T09:50:32;28.80;36.60
67598;DHT22;62026;39.230;9.122;2023-08-07T09:52:58;28.70;36.60
67598;DHT22;62026;39.230;9.122;2023-08-07T09:55:25;28.70;36.80
67598;DHT22;62026;39.230;9.122;2023-08-07T09:57:51;28.60;36.90
67598;DHT22;62026;39.230;9.122;2023-08-07T10:00:18;28.50;37.00
67598;DHT22;62026;39.230;9.122;2023-08-07T10:02:48;28.50;37.30
67598;DHT22;62026;39.230;9.122;2023-08-07T10:05:15;28.50;37.00
67598;DHT22;62026;39.230;9.122;2023-08-07T10:07:42;28.30;37.10
67598;DHT22;62026;39.230;9.122;2023-08-07T10:10:09;28.30;37.50
67598;DHT22;62026;39.230;9.122;2023-08-07T10:12:38;28.30;37.40
67598;DHT22;62026;39.230;9.122;2023-08-07T10:15:05;28.30;36.90
67598;DHT22;62026;39.230;9.122;2023-08-07T10:17:32;28.20;36.50
67598;DHT22;62026;39.230;9.122;2023-08-07T10:19:58;28.20;36.90
67598;DHT22;62026;39.230;9.122;2023-08-07T10:22:26;28.20;37.10
67598;DHT22;62026;39.230;9.122;2023-08-07T10:24:58;28.20;37.20
67598;DHT22;62026;39.230;9.122;2023-08-07T10:27:27;28.20;37.10
67598;DHT22;62026;39.230;9.122;2023-08-07T10:29:57;28.10;37.10
67598;DHT22;62026;39.230;9.122;2023-08-07T10:32:27;28.00;37.50
67598;DHT22;62026;39.230;9.122;2023-08-07T10:34:54;27.90;36.90
67598;DHT22;62026;39.230;9.122;2023-08-07T10:40:09;27.90;37.30
67598;DHT22;62026;39.230;9.122;2023-08-07T10:42:58;27.90;37.40
67598;DHT22;62026;39.230;9.122;2023-08-07T10:45:27;27.80;37.70
67598;DHT22;62026;39.230;9.122;2023-08-07T10:48:12;27.80;38.00
67598;DHT22;62026;39.230;9.122;2023-08-07T10:51:02;27.70;38.10
67598;DHT22;62026;39.230;9.122;2023-08-07T10:53:37;27.70;38.40
67598;DHT22;62026;39.230;9.122;2023-08-07T10:56:09;27.60;38.60
67598;DHT22;62026;39.230;9.122;2023-08-07T10:58:38;27.60;38.60
67598;DHT22;62026;39.230;9.122;2023-08-07T11:01:26;27.70;38.50
67598;DHT22;62026;39.230;9.122;2023-08-07T11:04:13;27.70;38.70
67598;DHT22;62026;39.230;9.122;2023-08-07T11:06:42;27.70;38.90
67598;DHT22;62026;39.230;9.122;2023-08-07T11:09:10;27.60;39.00
67598;DHT22;62026;39.230;9.122;2023-08-07T11:11:43;27.60;39.20
67598;DHT22;62026;39.230;9.122;2023-08-07T11:14:18;27.60;39.00
67598;DHT22;62026;39.230;9.122;2023-08-07T11:16:46;27.50;38.90
67598;DHT22;62026;39.230;9.122;2023-08-07T11:19:17;27.50;39.20
67598;DHT22;62026;39.230;9.122;2023-08-07T11:21:44;27.50;38.90
67598;DHT22;62026;39.230;9.122;2023-08-07T11:24:14;27.40;38.00
67598;DHT22;62026;39.230;9.122;2023-08-07T11:26:45;27.40;39.10
67598;DHT22;62026;39.230;9.122;2023-08-07T11:29:15;27.30;39.30
67598;DHT22;62026;39.230;9.122;2023-08-07T11:31:42;27.30;39.00
67598;DHT22;62026;39.230;9.122;2023-08-07T11:34:08;27.30;39.10
67598;DHT22;62026;39.230;9.122;2023-08-07T11:36:42;27.30;39.40
67598;DHT22;62026;39.230;9.122;2023-08-07T11:39:08;27.30;39.30
67598;DHT22;62026;39.230;9.122;2023-08-07T11:41:35;27.40;39.50
67598;DHT22;62026;39.230;9.122;2023-08-07T11:44:01;27.30;39.30
67598;DHT22;62026;39.230;9.122;2023-08-07T11:46:27;27.30;39.30
67598;DHT22;62026;39.230;9.122;2023-08-07T11:48:56;27.30;39.40
67598;DHT22;62026;39.230;9.122;2023-08-07T11:51:22;27.20;39.50
67598;DHT22;62026;39.230;9.122;2023-08-07T11:53:49;27.30;39.20
67598;DHT22;62026;39.230;9.122;2023-08-07T11:56:15;27.20;38.40
67598;DHT22;62026;39.230;9.122;2023-08-07T11:58:44;27.20;38.70
67598;DHT22;62026;39.230;9.122;2023-08-07T12:01:18;27.20;39.10
67598;DHT22;62026;39.230;9.122;2023-08-07T12:03:56;27.20;39.00
67598;DHT22;62026;39.230;9.122;2023-08-07T12:06:35;27.20;39.60
67598;DHT22;62026;39.230;9.122;2023-08-07T12:09:02;27.10;40.10
67598;DHT22;62026;39.230;9.122;2023-08-07T12:11:29;27.10;39.20
67598;DHT22;62026;39.230;9.122;2023-08-07T12:13:56;27.20;39.50
67598;DHT22;62026;39.230;9.122;2023-08-07T12:16:24;27.20;39.70
67598;DHT22;62026;39.230;9.122;2023-08-07T12:18:51;27.20;39.70
67598;DHT22;62026;39.230;9.122;2023-08-07T12:21:22;27.10;39.80
67598;DHT22;62026;39.230;9.122;2023-08-07T12:23:50;27.10;38.90
67598;DHT22;62026;39.230;9.122;2023-08-07T12:26:17;27.10;39.30
67598;DHT22;62026;39.230;9.122;2023-08-07T12:28:44;27.10;40.10
67598;DHT22;62026;39.230;9.122;2023-08-07T12:31:10;27.00;40.30
67598;DHT22;62026;39.230;9.122;2023-08-07T12:33:36;27.00;40.10
67598;DHT22;62026;39.230;9.122;2023-08-07T12:36:02;27.10;40.30
67598;DHT22;62026;39.230;9.122;2023-08-07T12:38:28;27.00;40.40
67598;DHT22;62026;39.230;9.122;2023-08-07T12:40:55;27.00;40.10
67598;DHT22;62026;39.230;9.122;2023-08-07T12:43:21;27.10;40.20
67598;DHT22;62026;39.230;9.122;2023-08-07T12:45:48;27.10;40.60
67598;DHT22;62026;39.230;9.122;2023-08-07T12:48:14;27.10;40.70
67598;DHT22;62026;39.230;9.122;2023-08-07T12:50:40;27.00;40.80
67598;DHT22;62026;39.230;9.122;2023-08-07T12:53:07;27.00;41.10
67598;DHT22;62026;39.230;9.122;2023-08-07T12:55:33;27.10;40.70
67598;DHT22;62026;39.230;9.122;2023-08-07T12:58:00;27.10;40.40
67598;DHT22;62026;39.230;9.122;2023-08-07T13:00:26;27.10;40.10
67598;DHT22;62026;39.230;9.122;2023-08-07T13:02:53;27.10;40.10
67598;DHT22;62026;39.230;9.122;2023-08-07T13:05:21;27.10;40.50
67598;DHT22;62026;39.230;9.122;2023-08-07T13:07:48;27.10;40.50
67598;DHT22;62026;39.230;9.122;2023-08-07T13:10:15;27.10;40.10
67598;DHT22;62026;39.230;9.122;2023-08-07T13:12:44;27.10;40.10
67598;DHT22;62026;39.230;9.122;2023-08-07T13:15:14;27.10;40.00
67598;DHT22;62026;39.230;9.122;2023-08-07T13:17:42;27.00;40.50
67598;DHT22;62026;39.230;9.122;2023-08-07T13:20:10;27.00;40.30
67598;DHT22;62026;39.230;9.122;2023-08-07T13:22:39;27.00;40.30
67598;DHT22;62026;39.230;9.122;2023-08-07T13:25:10;27.10;40.30
67598;DHT22;62026;39.230;9.122;2023-08-07T13:27:38;27.10;40.20
67598;DHT22;62026;39.230;9.122;2023-08-07T13:30:04;27.10;40.40
67598;DHT22;62026;39.230;9.122;2023-08-07T13:32:31;27.10;40.50
67598;DHT22;62026;39.230;9.122;2023-08-07T13:34:57;27.00;40.20
67598;DHT22;62026;39.230;9.122;2023-08-07T13:37:23;27.00;40.50
67598;DHT22;62026;39.230;9.122;2023-08-07T13:39:49;27.00;40.60
67598;DHT22;62026;39.230;9.122;2023-08-07T13:42:18;27.10;40.40
67598;DHT22;62026;39.230;9.122;2023-08-07T13:44:44;27.00;40.50
67598;DHT22;62026;39.230;9.122;2023-08-07T13:47:10;27.00;40.00
67598;DHT22;62026;39.230;9.122;2023-08-07T13:49:38;27.00;40.40
67598;DHT22;62026;39.230;9.122;2023-08-07T13:52:05;27.10;40.30
67598;DHT22;62026;39.230;9.122;2023-08-07T13:54:31;27.00;40.60
67598;DHT22;62026;39.230;9.122;2023-08-07T13:56:57;27.00;40.60
67598;DHT22;62026;39.230;9.122;2023-08-07T13:59:23;27.10;40.30
67598;DHT22;62026;39.230;9.122;2023-08-07T14:01:48;27.10;40.10
67598;DHT22;62026;39.230;9.122;2023-08-07T14:04:15;27.10;40.30
67598;DHT22;62026;39.230;9.122;2023-08-07T14:06:41;27.00;40.70
67598;DHT22;62026;39.230;9.122;2023-08-07T14:09:09;27.10;40.70
67598;DHT22;62026;39.230;9.122;2023-08-07T14:11:35;27.10;40.40
67598;DHT22;62026;39.230;9.122;2023-08-07T14:14:02;27.10;39.80
67598;DHT22;62026;39.230;9.122;2023-08-07T14:16:28;27.10;40.10
67598;DHT22;62026;39.230;9.122;2023-08-07T14:18:54;27.10;40.30
67598;DHT22;62026;39.230;9.122;2023-08-07T14:21:20;27.10;40.10
67598;DHT22;62026;39.230;9.122;2023-08-07T14:23:46;27.10;40.20
67598;DHT22;62026;39.230;9.122;2023-08-07T14:26:13;27.10;39.90
67598;DHT22;62026;39.230;9.122;2023-08-07T14:28:39;27.10;39.90
67598;DHT22;62026;39.230;9.122;2023-08-07T14:31:07;27.10;40.10
67598;DHT22;62026;39.230;9.122;2023-08-07T14:33:34;27.00;40.30
67598;DHT22;62026;39.230;9.122;2023-08-07T14:36:00;27.00;40.10
67598;DHT22;62026;39.230;9.122;2023-08-07T14:38:26;27.00;40.10
67598;DHT22;62026;39.230;9.122;2023-08-07T14:40:52;26.90;39.40
67598;DHT22;62026;39.230;9.122;2023-08-07T14:43:19;26.90;39.60
67598;DHT22;62026;39.230;9.122;2023-08-07T14:45:45;26.90;39.40
67598;DHT22;62026;39.230;9.122;2023-08-07T14:48:12;27.00;39.60
67598;DHT22;62026;39.230;9.122;2023-08-07T14:50:39;27.00;39.60
67598;DHT22;62026;39.230;9.122;2023-08-07T14:53:05;27.00;39.70
67598;DHT22;62026;39.230;9.122;2023-08-07T14:55:31;26.90;40.40
67598;DHT22;62026;39.230;9.122;2023-08-07T14:57:57;26.90;40.50
67598;DHT22;62026;39.230;9.122;2023-08-07T15:00:23;27.00;41.20
67598;DHT22;62026;39.230;9.122;2023-08-07T15:02:49;27.00;41.60
67598;DHT22;62026;39.230;9.122;2023-08-07T15:05:15;27.00;41.20
67598;DHT22;62026;39.230;9.122;2023-08-07T15:07:41;26.90;41.60
67598;DHT22;62026;39.230;9.122;2023-08-07T15:10:08;26.90;41.80
67598;DHT22;62026;39.230;9.122;2023-08-07T15:12:34;27.00;41.80
67598;DHT22;62026;39.230;9.122;2023-08-07T15:15:01;26.90;41.90
67598;DHT22;62026;39.230;9.122;2023-08-07T15:17:28;26.90;42.00
67598;DHT22;62026;39.230;9.122;2023-08-07T15:19:54;26.90;42.30
67598;DHT22;62026;39.230;9.122;2023-08-07T15:22:20;26.90;42.50
67598;DHT22;62026;39.230;9.122;2023-08-07T15:24:46;26.90;42.70
67598;DHT22;62026;39.230;9.122;2023-08-07T15:27:12;26.90;42.60
67598;DHT22;62026;39.230;9.122;2023-08-07T15:29:38;26.90;42.30
67598;DHT22;62026;39.230;9.122;2023-08-07T15:32:08;26.80;42.80
67598;DHT22;62026;39.230;9.122;2023-08-07T15:34:34;26.90;42.90
67598;DHT22;62026;39.230;9.122;2023-08-07T15:37:00;26.90;42.90